createdAt,value
2023-03-22T00:01:18.508Z,3.6624999999999996
2023-03-22T00:04:16.248Z,3.8499999999999996
2023-03-22T00:07:16.219Z,4.4625
2023-03-22T00:11:17.982Z,3.5875000000000004
2023-03-22T00:14:17.134Z,3.5875000000000004
2023-03-22T00:17:16.895Z,2.7249999999999996
2023-03-22T00:21:17.226Z,5.4125000000000005
2023-03-22T00:24:16.344Z,5
2023-03-22T00:27:16.297Z,4.525
2023-03-22T00:31:15.889Z,3.6125
2023-03-22T00:34:16.046Z,6.1875
2023-03-22T00:37:16.414Z,3.8625000000000003
2023-03-22T00:41:18.403Z,5.1
2023-03-22T00:44:16.461Z,5.375
2023-03-22T00:47:16.183Z,3.575
2023-03-22T00:51:16.464Z,3.1875
2023-03-22T00:54:17.372Z,3.525
2023-03-22T00:57:18.106Z,2.85
2023-03-22T01:01:16.625Z,5.2875
2023-03-22T01:04:18.377Z,3.0374999999999996
2023-03-22T01:07:18.093Z,3.7375
2023-03-22T01:11:16.606Z,3.3875
2023-03-22T01:14:16.602Z,3.325
2023-03-22T01:17:16.620Z,2.35
2023-03-22T01:21:15.917Z,6.025
2023-03-22T01:24:17.008Z,5.0625
2023-03-22T01:27:16.532Z,5.262499999999999
2023-03-22T01:31:15.915Z,5.324999999999999
2023-03-22T01:34:16.995Z,5.4625
2023-03-22T01:37:16.082Z,2.7625
2023-03-22T01:41:16.363Z,4.887499999999999
2023-03-22T01:44:19.572Z,3.6999999999999997
2023-03-22T01:47:16.636Z,3.4749999999999996
2023-03-22T01:51:19.351Z,3.95
2023-03-22T01:54:22.312Z,2.4375
2023-03-22T01:57:16.578Z,2.8875
2023-03-22T02:01:15.705Z,3.1875
2023-03-22T02:04:18.722Z,2.4375
2023-03-22T02:07:18.042Z,5
2023-03-22T02:11:19.720Z,4.175
2023-03-22T02:14:31.161Z,4.9125000000000005
2023-03-22T02:31:42.457Z,2.925
2023-03-22T02:34:35.189Z,3.0875000000000004
2023-03-22T02:37:36.683Z,2.8375
2023-03-22T02:41:26.779Z,4.2125
2023-03-22T02:44:25.487Z,4.012499999999999
2023-03-22T02:47:23.376Z,3.6375
2023-03-22T02:51:21.006Z,3.9125
2023-03-22T02:54:22.646Z,4.2375
2023-03-22T02:57:24.368Z,2.775
2023-03-22T03:01:22.871Z,3.1125
2023-03-22T03:04:18.822Z,2.9875
2023-03-22T03:07:20.007Z,2.8875
2023-03-22T03:11:17.101Z,3.5125
2023-03-22T03:14:22.048Z,4.4
2023-03-22T03:17:29.059Z,2.725
2023-03-22T03:21:28.345Z,4.05
2023-03-22T03:24:25.284Z,2.65
2023-03-22T03:27:22.608Z,6.2875000000000005
2023-03-22T03:31:27.798Z,3.4375
2023-03-22T03:34:21.189Z,3.6
2023-03-22T03:37:21.104Z,3.6374999999999997
2023-03-22T03:41:21.735Z,3.95
2023-03-22T03:44:18.011Z,2.975
2023-03-22T03:47:17.782Z,3.3500000000000005
2023-03-22T03:51:15.923Z,3.8249999999999997
2023-03-22T03:54:16.017Z,4.275
2023-03-22T03:57:16.889Z,3.4375
2023-03-22T04:01:20.108Z,3.1125
2023-03-22T04:04:18.538Z,2.95
2023-03-22T04:07:16.545Z,3.8499999999999996
2023-03-22T04:11:16.543Z,2.525
2023-03-22T04:14:16.971Z,3.7375
2023-03-22T04:17:16.974Z,2.6625
2023-03-22T04:21:16.777Z,2.9375
2023-03-22T04:24:16.109Z,2.7624999999999997
2023-03-22T04:27:16.423Z,6.949999999999999
2023-03-22T04:31:16.224Z,3.2749999999999995
2023-03-22T04:34:16.585Z,3.375
2023-03-22T04:37:17.568Z,6.0875
2023-03-22T04:41:16.747Z,5.5375
2023-03-22T04:44:16.020Z,3.2875
2023-03-22T04:47:17.164Z,1.95
2023-03-22T04:51:15.933Z,2.575
2023-03-22T04:54:16.907Z,3.125
2023-03-22T04:57:16.067Z,3.95
2023-03-22T05:01:17.662Z,4.0625
2023-03-22T05:04:17.765Z,2.7625
2023-03-22T05:07:16.999Z,6.225
2023-03-22T05:11:17.643Z,3.0125
2023-03-22T05:14:16.474Z,2.5749999999999997
2023-03-22T05:17:16.419Z,2.3375
2023-03-22T05:21:17.373Z,4.199999999999999
2023-03-22T05:24:16.608Z,2.875
2023-03-22T05:27:16.665Z,3.325
2023-03-22T05:31:17.582Z,3.5374999999999996
2023-03-22T05:34:16.615Z,3.4375
2023-03-22T05:37:16.937Z,4.375
2023-03-22T05:41:16.650Z,2.2625
2023-03-22T05:44:16.903Z,3.0374999999999996
2023-03-22T05:47:16.905Z,3.5500000000000003
2023-03-22T05:51:17.787Z,3.5625
2023-03-22T05:54:16.283Z,2.725
2023-03-22T05:57:19.165Z,2.825
2023-03-22T06:01:16.615Z,2.2625
2023-03-22T06:11:16.261Z,2.825
2023-03-22T06:14:16.885Z,2.35
2023-03-22T06:17:17.024Z,2.8625
2023-03-22T06:21:15.599Z,2.9750000000000005
2023-03-22T06:24:16.081Z,3.15
2023-03-22T06:27:16.851Z,3.5375
2023-03-22T06:31:15.848Z,4.35
2023-03-22T06:34:16.020Z,3.8375
2023-03-22T06:37:16.621Z,2.4625
2023-03-22T06:41:16.506Z,3.3875
2023-03-22T06:44:17.323Z,2.6875
2023-03-22T06:51:16.725Z,3.7874999999999996
2023-03-22T06:54:17.064Z,3.2
2023-03-22T06:57:16.783Z,4.612500000000001
2023-03-22T07:01:16.578Z,3.85
2023-03-22T07:04:16.863Z,3.8
2023-03-22T07:07:16.895Z,2.2625
2023-03-22T07:11:16.451Z,4.0625
2023-03-22T07:14:16.680Z,2.7
2023-03-22T07:17:16.812Z,2.775
2023-03-22T07:21:15.906Z,4.1125
2023-03-22T07:24:16.236Z,2.9625000000000004
2023-03-22T07:27:16.243Z,4.3
2023-03-22T07:31:16.120Z,2.9375
2023-03-22T07:41:17.322Z,3.2125
2023-03-22T07:44:18.616Z,3.9625
2023-03-22T07:47:22.085Z,4.1125
2023-03-22T07:51:17.041Z,3.4999999999999996
2023-03-22T07:54:32.241Z,3.95
2023-03-22T07:57:16.806Z,4.0249999999999995
2023-03-22T08:01:16.543Z,2.2874999999999996
2023-03-22T08:04:17.104Z,3.625
2023-03-22T08:07:18.660Z,3.0375
2023-03-22T08:11:15.899Z,1.7000000000000002
2023-03-22T08:14:18.528Z,3.0375
2023-03-22T08:17:17.109Z,3.575
2023-03-22T08:21:16.342Z,1.925
2023-03-22T08:24:16.795Z,2.325
2023-03-22T08:27:17.313Z,2.3125
2023-03-22T08:31:17.091Z,2.2875
2023-03-22T08:34:17.233Z,2.4625
2023-03-22T08:37:16.693Z,3.8125
2023-03-22T08:41:16.310Z,2.6875
2023-03-22T08:44:16.108Z,3.425
2023-03-22T08:47:15.977Z,4.7125
2023-03-22T08:51:18.284Z,6.7125
2023-03-22T08:54:16.694Z,7.5125
2023-03-22T08:57:16.609Z,5.6625
2023-03-22T09:01:16.969Z,5.0625
2023-03-22T09:04:16.363Z,3.4124999999999996
2023-03-22T09:07:18.156Z,2.825
2023-03-22T09:11:18.004Z,5.237500000000001
2023-03-22T09:14:16.814Z,4.8625
2023-03-22T09:17:21.326Z,9.0375
2023-03-22T09:21:16.227Z,7.4
2023-03-22T09:24:16.664Z,7.0375
2023-03-22T09:27:16.710Z,7.1625
2023-03-22T09:31:19.122Z,7.1499999999999995
2023-03-22T09:34:16.938Z,4.775
2023-03-22T09:37:18.082Z,6.175
2023-03-22T09:51:29.706Z,3.75
2023-03-22T09:54:23.254Z,3.875
2023-03-22T09:57:24.743Z,6.725
2023-03-22T10:01:28.944Z,3.0249999999999995
2023-03-22T10:04:29.168Z,3.2
2023-03-22T10:07:25.177Z,3.45
2023-03-22T10:11:24.342Z,4.125
2023-03-22T10:14:28.583Z,3.2750000000000004
2023-03-22T10:17:22.793Z,4.3375
2023-03-22T10:21:18.615Z,2.95
2023-03-22T10:24:21.586Z,3.6125
2023-03-22T10:27:18.997Z,3.8499999999999996
2023-03-22T10:31:18.903Z,2.7125000000000004
2023-03-22T10:34:21.242Z,7
2023-03-22T10:37:19.368Z,5.875
2023-03-22T10:41:18.384Z,4.487500000000001
2023-03-22T10:44:18.871Z,4.574999999999999
2023-03-22T10:47:26.355Z,3.1875
2023-03-22T11:01:25.477Z,4.0375
2023-03-22T11:04:16.783Z,3.6375
2023-03-22T11:07:30.310Z,6.225
2023-03-22T11:11:20.137Z,4.775
2023-03-22T11:14:22.362Z,2.9124999999999996
2023-03-22T11:17:21.806Z,2.725
2023-03-22T11:21:18.775Z,5.2875
2023-03-22T11:24:18.044Z,4.387499999999999
2023-03-22T11:27:20.339Z,4.4125
2023-03-22T11:31:18.466Z,3.8875
2023-03-22T11:34:18.901Z,4.8375
2023-03-22T11:37:18.169Z,4.8125
2023-03-22T11:41:22.616Z,3.475
2023-03-22T11:44:20.298Z,3.6125
2023-03-22T11:47:16.574Z,4.85
2023-03-22T11:51:26.956Z,5.987500000000001
2023-03-22T11:54:28.477Z,3.9
2023-03-22T11:57:22.215Z,4.0125
2023-03-22T12:01:20.517Z,5.0375000000000005
2023-03-22T12:04:19.837Z,3
2023-03-22T12:07:18.921Z,5.9125
2023-03-22T12:11:23.983Z,4.824999999999999
2023-03-22T12:14:21.607Z,6.375
2023-03-22T12:17:25.731Z,7.8875
2023-03-22T12:21:16.773Z,5.949999999999999
2023-03-22T12:24:25.117Z,6.3500000000000005
2023-03-22T12:27:20.694Z,7.1875
2023-03-22T12:31:20.448Z,6.2875
2023-03-22T12:34:20.486Z,5.987500000000001
2023-03-22T12:37:20.337Z,7.3375
2023-03-22T12:41:24.403Z,6.675000000000001
2023-03-22T12:44:23.688Z,5.0125
2023-03-22T12:47:23.521Z,6.8
2023-03-22T12:51:15.963Z,6.074999999999999
2023-03-22T12:54:19.961Z,7.675000000000001
2023-03-22T12:57:17.315Z,5.762499999999999
2023-03-22T13:01:28.721Z,5.1125
2023-03-22T13:04:49.310Z,5.387499999999999
2023-03-22T13:07:31.276Z,7.275
2023-03-22T13:11:23.265Z,6.1000000000000005
2023-03-22T13:15:35.071Z,4.8125
2023-03-22T13:17:33.165Z,5.2375
2023-03-22T13:21:19.254Z,5.699999999999999
2023-03-22T13:24:23.426Z,4.4625
2023-03-22T13:27:17.268Z,5.4375
2023-03-22T13:31:33.365Z,7.025
2023-03-22T13:34:19.185Z,8.100000000000001
2023-03-22T13:37:30.899Z,4.1
2023-03-22T13:41:23.650Z,5.7
2023-03-22T13:44:23.809Z,4.1625
2023-03-22T13:47:36.181Z,5
2023-03-22T13:51:20.187Z,5.512499999999999
2023-03-22T13:54:21.254Z,4.4625
2023-03-22T13:57:47.094Z,5.6125
2023-03-22T14:01:25.887Z,5.4
2023-03-22T14:04:29.240Z,4.9375
2023-03-22T14:07:24.578Z,6.025
2023-03-22T14:11:21.944Z,3.2375
2023-03-22T14:14:22.779Z,4.25
2023-03-22T14:17:28.836Z,4.8125
2023-03-22T14:21:20.924Z,3.85
2023-03-22T14:51:27.422Z,6.25
2023-03-22T14:54:25.930Z,5.387499999999999
2023-03-22T14:57:28.454Z,4.3375
2023-03-22T15:01:23.269Z,5.8375
2023-03-22T15:04:17.590Z,4.3374999999999995
2023-03-22T15:07:18.902Z,4.875
2023-03-22T15:11:16.952Z,3.95
2023-03-22T15:14:16.839Z,3.5
2023-03-22T15:17:16.300Z,6.5874999999999995
2023-03-22T15:21:16.559Z,5.65
2023-03-22T15:24:27.879Z,5.1125
2023-03-22T15:27:17.760Z,5.8125
2023-03-22T15:31:23.365Z,4.925000000000001
2023-03-22T15:34:19.129Z,5.7625
2023-03-22T15:37:24.835Z,6.525
2023-03-22T15:41:23.517Z,7.3999999999999995
2023-03-22T15:44:21.864Z,4.7
2023-03-22T15:47:18.520Z,7.5874999999999995
2023-03-22T15:51:19.062Z,7.699999999999999
2023-03-22T15:54:21.709Z,9.3625
2023-03-22T15:57:19.590Z,5.637499999999999
2023-03-22T16:01:19.209Z,5.05
2023-03-22T16:04:19.510Z,4.8
2023-03-22T16:07:16.931Z,6.012499999999999
2023-03-22T16:11:19.955Z,4.8
2023-03-22T16:14:17.530Z,3.9000000000000004
2023-03-22T16:17:19.063Z,3.9875000000000003
2023-03-22T16:21:19.294Z,5.625
2023-03-22T16:24:16.873Z,9.049999999999999
2023-03-22T16:27:19.255Z,4.3
2023-03-22T16:31:17.412Z,11.0375
2023-03-22T16:34:16.127Z,8.625
2023-03-22T16:37:17.865Z,9.1125
2023-03-22T16:41:20.900Z,5.3374999999999995
2023-03-22T16:44:17.233Z,6.35
2023-03-22T16:47:19.453Z,5.4
2023-03-22T16:51:22.681Z,4.8625
2023-03-22T16:54:16.866Z,5.0125
2023-03-22T16:57:19.047Z,5.85
2023-03-22T17:01:18.638Z,6.7375
2023-03-22T17:04:16.119Z,5.9625
2023-03-22T17:07:19.000Z,7.512499999999999
2023-03-22T17:11:20.154Z,8.100000000000001
2023-03-22T17:14:15.966Z,5.8125
2023-03-22T17:17:17.199Z,13.875
2023-03-22T17:21:18.815Z,10.162500000000001
2023-03-22T17:24:16.320Z,8.4
2023-03-22T17:27:16.421Z,6.5625
2023-03-22T17:31:18.038Z,11.8875
2023-03-22T17:34:17.071Z,9.5625
2023-03-22T17:37:16.744Z,7.387499999999999
2023-03-22T17:41:18.726Z,9.65
2023-03-22T17:44:16.343Z,12.037500000000001
2023-03-22T17:47:34.668Z,10.05
2023-03-22T17:51:16.095Z,13.2
2023-03-22T17:54:58.377Z,11.725
2023-03-22T18:01:18.539Z,10.85
2023-03-22T18:04:16.039Z,12.4375
2023-03-22T18:07:16.120Z,8.875
2023-03-22T18:11:18.491Z,11.575
2023-03-22T18:14:26.956Z,9.100000000000001
2023-03-22T18:17:18.879Z,9.15
2023-03-22T18:21:17.545Z,11.5125
2023-03-22T18:24:16.570Z,11.4375
2023-03-22T18:27:17.815Z,13.15
2023-03-22T18:31:17.807Z,12.1375
2023-03-22T18:34:18.255Z,16.9625
2023-03-22T18:37:18.758Z,13.600000000000001
2023-03-22T18:44:20.202Z,14.6125
2023-03-22T18:47:19.574Z,15.162499999999998
2023-03-22T18:51:18.175Z,20.775
2023-03-22T18:54:16.474Z,23.900000000000002
2023-03-22T18:57:20.396Z,14.6125
2023-03-22T19:01:16.613Z,12.475000000000001
2023-03-22T19:04:17.117Z,15.4375
2023-03-22T19:07:20.312Z,15.5125
2023-03-22T19:11:16.829Z,12.350000000000001
2023-03-22T19:15:05.717Z,10.462499999999999
2023-03-22T19:17:16.506Z,14.962500000000002
2023-03-22T19:21:26.684Z,14.262500000000001
2023-03-22T19:24:16.305Z,17.0375
2023-03-22T19:27:19.266Z,9.2875
2023-03-22T19:31:16.211Z,11.475000000000001
2023-03-22T19:34:16.640Z,11.2625
2023-03-22T19:37:17.848Z,11.225
2023-03-22T19:41:47.235Z,9.712499999999999
2023-03-22T19:44:17.366Z,8.975
2023-03-22T19:47:16.447Z,10.212499999999999
2023-03-22T19:51:17.409Z,12.575
2023-03-22T19:57:18.684Z,14.225
2023-03-22T20:01:16.887Z,11.925
2023-03-22T20:04:16.747Z,10.2125
2023-03-22T20:07:19.841Z,9.400000000000002
2023-03-22T20:31:17.119Z,14.1625
2023-03-22T20:34:16.707Z,17.6
2023-03-22T20:37:19.198Z,24.1
2023-03-22T20:41:15.932Z,10.575000000000001
2023-03-22T20:44:15.994Z,10.75
2023-03-22T20:47:16.193Z,10.125
2023-03-22T20:51:15.598Z,11.125
2023-03-22T20:54:17.323Z,11.45
2023-03-22T20:57:17.372Z,11.95
2023-03-22T21:01:18.397Z,13.425
2023-03-22T21:04:18.604Z,10.65
2023-03-22T21:07:16.726Z,16.1125
2023-03-22T21:11:16.563Z,12.125
2023-03-22T21:14:16.790Z,8.875
2023-03-22T21:17:19.075Z,11.5
2023-03-22T21:21:16.016Z,9.825
2023-03-22T21:24:16.382Z,8.774999999999999
2023-03-22T21:27:20.480Z,10.125
2023-03-22T21:31:15.869Z,12.1
2023-03-22T21:34:15.965Z,12.375
2023-03-22T21:37:16.821Z,10.625
2023-03-22T21:41:16.413Z,14.4625
2023-03-22T21:44:16.101Z,12.8375
2023-03-22T21:47:21.231Z,18.3875
2023-03-22T21:51:16.465Z,9.6125
2023-03-22T21:54:18.414Z,10.4375
2023-03-22T21:57:17.257Z,13.5
2023-03-22T22:01:17.227Z,16.612499999999997
2023-03-22T22:04:17.576Z,9.0625
2023-03-22T22:07:17.879Z,19.6125
2023-03-22T22:11:16.075Z,13.7375
2023-03-22T22:14:16.401Z,16.6
2023-03-22T22:17:16.506Z,11.925
2023-03-22T22:21:16.163Z,13.862499999999997
2023-03-22T22:24:16.430Z,15.7
2023-03-22T22:27:18.642Z,10.1875
2023-03-22T22:31:18.522Z,8.087499999999999
2023-03-22T22:34:16.067Z,11.837499999999999
2023-03-22T22:37:16.041Z,10.65
2023-03-22T22:41:17.342Z,9.825
2023-03-22T22:44:16.438Z,9.075
2023-03-22T22:47:15.847Z,11.4
2023-03-22T22:51:19.685Z,9.162500000000001
2023-03-22T22:54:16.678Z,14.0875
2023-03-22T22:57:16.718Z,10.6125
2023-03-22T23:01:18.004Z,12.575
2023-03-22T23:04:16.885Z,8.85
2023-03-22T23:07:16.647Z,10.912500000000001
2023-03-22T23:11:22.691Z,13.8875
2023-03-22T23:14:16.386Z,10.75
2023-03-22T23:17:18.301Z,11.5125
2023-03-22T23:21:18.005Z,12.775
2023-03-22T23:24:16.664Z,10.4125
2023-03-22T23:27:17.744Z,8.625
2023-03-22T23:31:16.442Z,7.0625
2023-03-22T23:34:18.111Z,7.325
2023-03-22T23:37:17.650Z,12.0375
2023-03-22T23:41:16.808Z,9.35
2023-03-22T23:44:17.452Z,9.725
2023-03-22T23:47:16.621Z,8.225
2023-03-22T23:51:18.528Z,12.575
2023-03-22T23:54:17.011Z,7.5
2023-03-22T23:57:22.087Z,9.7375
